createdAt,value
2019-02-11T00:01:29.000Z,28.4
2019-02-11T00:03:29.000Z,28.4
2019-02-11T00:05:29.000Z,28.4
2019-02-11T00:06:29.000Z,28.3
2019-02-11T00:08:29.000Z,28.4
2019-02-11T00:10:29.000Z,28.3
2019-02-11T00:11:29.000Z,28.4
2019-02-11T00:13:29.000Z,28.4
2019-02-11T00:15:29.000Z,28.4
2019-02-11T00:17:29.000Z,28.4
2019-02-11T00:19:14.000Z,28.3
2019-02-11T00:20:29.000Z,28.3
2019-02-11T00:21:29.000Z,28.3
2019-02-11T00:23:29.000Z,28.3
2019-02-11T00:24:29.000Z,28.3
2019-02-11T00:26:29.000Z,28.3
2019-02-11T00:27:29.000Z,28.3
2019-02-11T00:29:29.000Z,28.3
2019-02-11T00:30:29.000Z,28.3
2019-02-11T00:32:29.000Z,28.3
2019-02-11T00:34:29.000Z,28.3
2019-02-11T00:36:29.000Z,28.3
2019-02-11T00:38:29.000Z,28.3
2019-02-11T00:40:29.000Z,28.3
2019-02-11T00:41:29.000Z,28.3
2019-02-11T00:42:29.000Z,28.3
2019-02-11T00:44:29.000Z,28.3
2019-02-11T00:45:29.000Z,28.3
2019-02-11T00:47:14.000Z,28.3
2019-02-11T00:48:29.000Z,28.3
2019-02-11T00:49:29.000Z,28.3
2019-02-11T00:51:29.000Z,28.3
2019-02-11T00:52:29.000Z,28.3
2019-02-11T00:53:29.000Z,28.3
2019-02-11T00:55:29.000Z,28.3
2019-02-11T00:57:29.000Z,28.3
2019-02-11T00:58:29.000Z,28.3
2019-02-11T00:59:29.000Z,28.3
2019-02-11T01:01:29.000Z,28.3
2019-02-11T01:02:29.000Z,28.3
2019-02-11T01:03:29.000Z,28.3
2019-02-11T01:05:29.000Z,28.3
2019-02-11T01:06:29.000Z,28.3
2019-02-11T01:07:29.000Z,28.3
2019-02-11T01:08:29.000Z,28.3
2019-02-11T01:10:14.000Z,28.3
2019-02-11T01:11:29.000Z,28.3
2019-02-11T01:12:29.000Z,28.3
2019-02-11T01:13:29.000Z,28.3
2019-02-11T01:14:29.000Z,28.3
2019-02-11T01:16:29.000Z,28.3
2019-02-11T01:17:29.000Z,28.3
2019-02-11T01:18:29.000Z,28.3
2019-02-11T01:19:29.000Z,28.3
2019-02-11T01:21:29.000Z,28.3
2019-02-11T01:23:29.000Z,28.3
2019-02-11T01:25:29.000Z,28.3
2019-02-11T01:26:29.000Z,28.3
2019-02-11T01:27:29.000Z,28.3
2019-02-11T01:29:29.000Z,28.3
2019-02-11T01:30:29.000Z,28.3
2019-02-11T01:31:29.000Z,28.3
2019-02-11T01:33:29.000Z,28.3
2019-02-11T01:35:29.000Z,28.3
2019-02-11T01:37:29.000Z,28.3
2019-02-11T01:38:29.000Z,28.3
2019-02-11T01:39:29.000Z,28.3
2019-02-11T01:41:29.000Z,28.3
2019-02-11T01:42:29.000Z,28.3
2019-02-11T01:44:29.000Z,28.3
2019-02-11T01:45:29.000Z,28.3
2019-02-11T01:46:29.000Z,28.3
2019-02-11T01:47:29.000Z,28.3
2019-02-11T01:49:29.000Z,28.3
2019-02-11T01:50:29.000Z,28.3
2019-02-11T01:52:29.000Z,28.3
2019-02-11T01:54:29.000Z,28.3
2019-02-11T01:56:29.000Z,28.3
2019-02-11T01:57:29.000Z,28.3
2019-02-11T01:58:29.000Z,28.3
2019-02-11T02:00:29.000Z,28.3
2019-02-11T02:02:29.000Z,28.3
2019-02-11T02:04:29.000Z,28.3
2019-02-11T02:05:29.000Z,28.3
2019-02-11T02:07:29.000Z,28.3
2019-02-11T02:08:29.000Z,28.3
2019-02-11T02:09:29.000Z,28.3
2019-02-11T02:11:14.000Z,28.3
2019-02-11T02:12:14.000Z,28.3
2019-02-11T02:13:29.000Z,28.3
2019-02-11T02:15:14.000Z,28.3
2019-02-11T02:16:29.000Z,28.3
2019-02-11T02:17:29.000Z,28.3
2019-02-11T02:19:29.000Z,28.3
2019-02-11T02:20:29.000Z,28.3
2019-02-11T02:21:29.000Z,28.3
2019-02-11T02:23:29.000Z,28.4
2019-02-11T02:24:29.000Z,28.3
2019-02-11T02:26:29.000Z,28.3
2019-02-11T02:27:29.000Z,28.3
2019-02-11T02:28:29.000Z,28.3
2019-02-11T02:29:29.000Z,28.3
2019-02-11T02:31:14.000Z,28.3
2019-02-11T02:32:29.000Z,28.3
2019-02-11T02:33:29.000Z,28.3
2019-02-11T02:34:29.000Z,28.3
2019-02-11T02:35:29.000Z,28.3
2019-02-11T02:37:29.000Z,28.3
2019-02-11T02:38:29.000Z,28.3
2019-02-11T02:40:29.000Z,28.3
2019-02-11T02:41:29.000Z,28.3
2019-02-11T02:43:29.000Z,28.3
2019-02-11T02:45:29.000Z,28.3
2019-02-11T02:47:29.000Z,28.3
2019-02-11T02:49:29.000Z,28.3
2019-02-11T02:50:29.000Z,28.3
2019-02-11T02:52:29.000Z,28.3
2019-02-11T02:54:14.000Z,28.3
2019-02-11T02:55:29.000Z,28.3
2019-02-11T02:57:29.000Z,28.3
2019-02-11T02:58:29.000Z,28.3
2019-02-11T03:00:14.000Z,28.3
2019-02-11T03:01:29.000Z,28.3
2019-02-11T03:02:29.000Z,28.3
2019-02-11T03:04:29.000Z,28.3
2019-02-11T03:06:29.000Z,28.3
2019-02-11T03:08:29.000Z,28.3
2019-02-11T03:09:29.000Z,28.3
2019-02-11T03:10:29.000Z,28.3
2019-02-11T03:12:29.000Z,28.3
2019-02-11T03:13:29.000Z,28.3
2019-02-11T03:14:29.000Z,28.3
2019-02-11T03:16:29.000Z,28.3
2019-02-11T03:18:29.000Z,28.3
2019-02-11T03:20:29.000Z,28.3
2019-02-11T03:21:29.000Z,28.3
2019-02-11T03:22:29.000Z,28.3
2019-02-11T03:24:29.000Z,28.3
2019-02-11T03:26:14.000Z,28.3
2019-02-11T03:27:29.000Z,28.3
2019-02-11T03:29:29.000Z,28.3
2019-02-11T03:31:14.000Z,28.3
2019-02-11T03:32:29.000Z,28.3
2019-02-11T03:34:29.000Z,28.3
2019-02-11T03:35:29.000Z,28.3
2019-02-11T03:36:29.000Z,28.3
2019-02-11T03:38:13.000Z,28.3
2019-02-11T03:39:29.000Z,28.3
2019-02-11T03:40:29.000Z,28.3
2019-02-11T03:42:29.000Z,28.3
2019-02-11T03:43:29.000Z,28.3
2019-02-11T03:45:13.000Z,28.3
2019-02-11T03:46:29.000Z,28.3
2019-02-11T03:48:29.000Z,28.3
2019-02-11T03:50:29.000Z,28.3
2019-02-11T03:51:29.000Z,28.3
2019-02-11T03:52:29.000Z,28.3
2019-02-11T03:54:29.000Z,28.3
2019-02-11T03:56:29.000Z,28.3
2019-02-11T03:57:29.000Z,28.3
2019-02-11T03:58:29.000Z,28.3
2019-02-11T04:00:29.000Z,28.3
2019-02-11T04:01:29.000Z,28.3
2019-02-11T04:02:29.000Z,28.3
2019-02-11T04:04:29.000Z,28.3
2019-02-11T04:06:29.000Z,28.3
2019-02-11T04:08:29.000Z,28.3
2019-02-11T04:10:29.000Z,28.3
2019-02-11T04:11:29.000Z,28.3
2019-02-11T04:13:29.000Z,28.3
2019-02-11T04:15:13.000Z,28.3
2019-02-11T04:16:29.000Z,28.3
2019-02-11T04:18:29.000Z,28.3
2019-02-11T04:20:29.000Z,28.3
2019-02-11T04:21:29.000Z,28.3
2019-02-11T04:23:29.000Z,28.3
2019-02-11T04:25:29.000Z,28.3
2019-02-11T04:27:29.000Z,28.3
2019-02-11T04:28:29.000Z,28.3
2019-02-11T04:30:29.000Z,28.3
2019-02-11T04:31:29.000Z,28.3
2019-02-11T04:33:29.000Z,28.3
2019-02-11T04:35:29.000Z,28.3
2019-02-11T04:36:29.000Z,28.3
2019-02-11T04:38:29.000Z,28.3
2019-02-11T04:39:29.000Z,28.3
2019-02-11T04:41:29.000Z,28.3
2019-02-11T04:43:29.000Z,28.3
2019-02-11T04:45:29.000Z,28.3
2019-02-11T04:47:29.000Z,28.3
2019-02-11T04:48:29.000Z,28.3
2019-02-11T04:50:29.000Z,28.3
2019-02-11T04:52:29.000Z,28.3
2019-02-11T04:54:29.000Z,28.3
2019-02-11T04:56:29.000Z,28.3
2019-02-11T04:57:29.000Z,28.3
2019-02-11T04:59:29.000Z,28.3
2019-02-11T05:01:29.000Z,28.3
2019-02-11T05:03:29.000Z,28.3
2019-02-11T05:05:29.000Z,28.3
2019-02-11T05:06:29.000Z,28.3
2019-02-11T05:08:29.000Z,28.4
2019-02-11T05:10:29.000Z,28.4
2019-02-11T05:11:29.000Z,28.4
2019-02-11T05:12:29.000Z,28.4
2019-02-11T05:14:29.000Z,28.4
2019-02-11T05:16:29.000Z,28.4
2019-02-11T05:17:29.000Z,28.4
2019-02-11T05:19:29.000Z,28.4
2019-02-11T05:20:29.000Z,28.4
2019-02-11T05:22:29.000Z,28.4
2019-02-11T05:24:29.000Z,28.4
2019-02-11T05:26:29.000Z,28.4
2019-02-11T05:27:29.000Z,28.4
2019-02-11T05:29:29.000Z,28.3
2019-02-11T05:30:29.000Z,28.3
2019-02-11T05:32:29.000Z,28.3
2019-02-11T05:34:13.000Z,28.3
2019-02-11T05:35:29.000Z,28.4
2019-02-11T05:36:29.000Z,28.4
2019-02-11T05:37:29.000Z,28.4
2019-02-11T05:38:29.000Z,28.5
2019-02-11T05:39:29.000Z,28.5
2019-02-11T05:41:29.000Z,28.5
2019-02-11T05:42:29.000Z,28.5
2019-02-11T05:44:29.000Z,28.6
2019-02-11T05:46:29.000Z,28.6
2019-02-11T05:48:29.000Z,28.6
2019-02-11T05:49:29.000Z,28.7
2019-02-11T05:51:29.000Z,28.7
2019-02-11T05:52:29.000Z,28.7
2019-02-11T05:54:29.000Z,28.8
2019-02-11T05:56:29.000Z,28.9
2019-02-11T05:57:29.000Z,28.9
2019-02-11T05:59:29.000Z,28.9
2019-02-11T06:01:14.000Z,28.9
2019-02-11T06:02:29.000Z,28.9
2019-02-11T06:03:29.000Z,29
2019-02-11T06:05:29.000Z,29
2019-02-11T06:07:29.000Z,29
2019-02-11T06:09:29.000Z,29
2019-02-11T06:10:29.000Z,29
2019-02-11T06:12:29.000Z,29
2019-02-11T06:14:29.000Z,29
2019-02-11T06:15:29.000Z,29.1
2019-02-11T06:17:29.000Z,29.1
2019-02-11T06:19:29.000Z,29.1
2019-02-11T06:20:29.000Z,29.1
2019-02-11T06:22:29.000Z,29.1
2019-02-11T06:24:29.000Z,29.1
2019-02-11T06:25:29.000Z,29.1
2019-02-11T06:27:29.000Z,29.2
2019-02-11T06:29:29.000Z,29.2
2019-02-11T06:31:29.000Z,29.2
2019-02-11T06:32:29.000Z,29.2
2019-02-11T06:34:29.000Z,29.2
2019-02-11T06:36:29.000Z,29.2
2019-02-11T06:37:29.000Z,29.2
2019-02-11T06:39:29.000Z,29.3
2019-02-11T06:41:29.000Z,29.3
2019-02-11T06:43:29.000Z,29.3
2019-02-11T06:45:29.000Z,29.3
2019-02-11T06:46:29.000Z,29.3
2019-02-11T06:48:29.000Z,29.3
2019-02-11T06:49:29.000Z,29.3
2019-02-11T06:50:29.000Z,29.3
2019-02-11T06:51:29.000Z,29.4
2019-02-11T06:53:14.000Z,29.4
2019-02-11T06:54:29.000Z,29.4
2019-02-11T06:55:29.000Z,29.4
2019-02-11T06:57:14.000Z,29.4
2019-02-11T06:58:29.000Z,29.4
2019-02-11T07:00:29.000Z,29.5
2019-02-11T07:01:29.000Z,29.4
2019-02-11T07:03:29.000Z,29.5
2019-02-11T07:05:14.000Z,29.5
2019-02-11T07:06:29.000Z,29.5
2019-02-11T07:07:29.000Z,29.5
2019-02-11T07:09:29.000Z,29.5
2019-02-11T07:10:29.000Z,29.5
2019-02-11T07:12:29.000Z,29.6
2019-02-11T07:14:29.000Z,29.6
2019-02-11T07:16:29.000Z,29.6
2019-02-11T07:17:29.000Z,29.6
2019-02-11T07:18:29.000Z,29.6
2019-02-11T07:20:29.000Z,29.6
2019-02-11T07:21:29.000Z,29.6
2019-02-11T07:23:29.000Z,29.6
2019-02-11T07:24:29.000Z,29.6
2019-02-11T07:26:29.000Z,29.7
2019-02-11T07:27:29.000Z,29.7
2019-02-11T07:29:29.000Z,29.7
2019-02-11T07:31:29.000Z,29.7
2019-02-11T07:32:29.000Z,29.3
2019-02-11T07:33:29.000Z,28.8
2019-02-11T07:35:29.000Z,27.8
2019-02-11T07:36:29.000Z,27.4
2019-02-11T07:38:29.000Z,26.7
2019-02-11T07:40:29.000Z,26.7
2019-02-11T07:42:14.000Z,27
2019-02-11T07:43:29.000Z,27.2
2019-02-11T07:44:29.000Z,27.4
2019-02-11T07:45:29.000Z,27.5
2019-02-11T07:47:29.000Z,27.8
2019-02-11T07:49:29.000Z,28
2019-02-11T07:50:29.000Z,28.1
2019-02-11T07:51:29.000Z,28.2
2019-02-11T07:53:29.000Z,28.4
2019-02-11T07:54:29.000Z,28.4
2019-02-11T07:56:29.000Z,28.6
2019-02-11T07:58:29.000Z,28.7
2019-02-11T08:00:29.000Z,28.8
2019-02-11T08:02:29.000Z,28.9
2019-02-11T08:04:29.000Z,29
2019-02-11T08:06:29.000Z,29.1
2019-02-11T08:07:29.000Z,29.2
2019-02-11T08:08:29.000Z,29.2
2019-02-11T08:10:29.000Z,29.3
2019-02-11T08:11:29.000Z,29.4
2019-02-11T08:12:29.000Z,29.4
2019-02-11T08:14:29.000Z,29.5
2019-02-11T08:15:29.000Z,29.5
2019-02-11T08:17:29.000Z,29.6
2019-02-11T08:19:29.000Z,29.6
2019-02-11T08:21:29.000Z,29.7
2019-02-11T08:23:29.000Z,29.8
2019-02-11T08:25:29.000Z,29.8
2019-02-11T08:27:29.000Z,29.9
2019-02-11T08:29:29.000Z,30
2019-02-11T08:31:29.000Z,30.1
2019-02-11T08:33:29.000Z,30.2
2019-02-11T08:35:29.000Z,30.3
2019-02-11T08:37:29.000Z,30.4
2019-02-11T08:39:29.000Z,30.4
2019-02-11T08:41:29.000Z,30.5
2019-02-11T08:43:29.000Z,30.4
2019-02-11T08:45:29.000Z,30.4
2019-02-11T08:47:29.000Z,30.4
2019-02-11T08:49:29.000Z,30.5
2019-02-11T08:51:29.000Z,30.5
2019-02-11T08:52:29.000Z,30.5
2019-02-11T08:53:29.000Z,30.6
2019-02-11T08:54:29.000Z,30.6
2019-02-11T08:56:29.000Z,30.7
2019-02-11T08:58:29.000Z,30.7
2019-02-11T09:00:29.000Z,30.7
2019-02-11T09:01:29.000Z,30.8
2019-02-11T09:03:29.000Z,30.8
2019-02-11T09:05:14.000Z,30.8
2019-02-11T09:06:29.000Z,30.8
2019-02-11T09:07:29.000Z,30.8
2019-02-11T09:08:29.000Z,30.9
2019-02-11T09:09:29.000Z,30.9
2019-02-11T09:11:14.000Z,31
2019-02-11T09:12:29.000Z,31.1
2019-02-11T09:13:29.000Z,31.1
2019-02-11T09:15:29.000Z,31.1
2019-02-11T09:16:29.000Z,31.1
2019-02-11T09:17:29.000Z,31.1
2019-02-11T09:19:29.000Z,31.1
2019-02-11T09:21:29.000Z,31.1
2019-02-11T09:22:29.000Z,31.1
2019-02-11T09:24:29.000Z,31
2019-02-11T09:25:29.000Z,31
2019-02-11T09:26:29.000Z,31
2019-02-11T09:28:29.000Z,31
2019-02-11T09:29:29.000Z,31
2019-02-11T09:30:29.000Z,31
2019-02-11T09:31:29.000Z,30.9
2019-02-11T09:33:29.000Z,30.9
2019-02-11T09:34:29.000Z,30.9
2019-02-11T09:35:29.000Z,30.9
2019-02-11T09:36:29.000Z,30.9
2019-02-11T09:38:29.000Z,30.9
2019-02-11T09:39:29.000Z,30.9
2019-02-11T09:41:29.000Z,30.8
2019-02-11T09:43:29.000Z,30.8
2019-02-11T09:45:29.000Z,30.8
2019-02-11T09:46:29.000Z,30.8
2019-02-11T09:48:29.000Z,30.8
2019-02-11T09:50:29.000Z,30.8
2019-02-11T09:51:29.000Z,30.8
2019-02-11T09:52:29.000Z,30.8
2019-02-11T09:53:29.000Z,30.8
2019-02-11T09:55:29.000Z,30.8
2019-02-11T09:57:29.000Z,30.7
2019-02-11T09:58:29.000Z,30.7
2019-02-11T10:00:29.000Z,30.6
2019-02-11T10:01:29.000Z,30.6
2019-02-11T10:03:29.000Z,30.6
2019-02-11T10:05:29.000Z,30.6
2019-02-11T10:07:29.000Z,30.7
2019-02-11T10:08:29.000Z,30.7
2019-02-11T10:09:29.000Z,30.7
2019-02-11T10:10:29.000Z,30.7
2019-02-11T10:12:14.000Z,30.7
2019-02-11T10:13:29.000Z,30.7
2019-02-11T10:14:29.000Z,30.7
2019-02-11T10:16:29.000Z,30.7
2019-02-11T10:17:29.000Z,30.7
2019-02-11T10:19:29.000Z,30.8
2019-02-11T10:21:29.000Z,30.8
2019-02-11T10:23:29.000Z,30.8
2019-02-11T10:25:29.000Z,30.8
2019-02-11T10:27:13.000Z,30.9
2019-02-11T10:28:29.000Z,30.9
2019-02-11T10:30:29.000Z,30.9
2019-02-11T10:32:29.000Z,30.9
2019-02-11T10:34:29.000Z,30.9
2019-02-11T10:35:29.000Z,30.9
2019-02-11T10:36:29.000Z,30.9
2019-02-11T10:38:29.000Z,31
2019-02-11T10:40:29.000Z,30.9
2019-02-11T10:42:29.000Z,30.9
2019-02-11T10:43:29.000Z,30.9
2019-02-11T10:45:29.000Z,30.9
2019-02-11T10:47:29.000Z,31
2019-02-11T10:48:29.000Z,31
2019-02-11T10:49:29.000Z,31
2019-02-11T10:51:13.000Z,31
2019-02-11T10:52:29.000Z,31
2019-02-11T10:54:29.000Z,31
2019-02-11T10:55:29.000Z,31
2019-02-11T10:56:29.000Z,31
2019-02-11T10:58:29.000Z,31.1
2019-02-11T11:00:29.000Z,31.1
2019-02-11T11:01:29.000Z,31.1
2019-02-11T11:03:29.000Z,31.1
2019-02-11T11:05:29.000Z,31.1
2019-02-11T11:07:29.000Z,31.1
2019-02-11T11:09:14.000Z,31.1
2019-02-11T11:10:29.000Z,31.1
2019-02-11T11:11:29.000Z,31.1
2019-02-11T11:12:29.000Z,31.1
2019-02-11T11:14:29.000Z,31.1
2019-02-11T11:15:29.000Z,31.1
2019-02-11T11:17:14.000Z,31.1
2019-02-11T11:18:29.000Z,31.1
2019-02-11T11:20:29.000Z,31.1
2019-02-11T11:21:29.000Z,31.1
2019-02-11T11:23:14.000Z,31.1
2019-02-11T11:24:29.000Z,31.2
2019-02-11T11:26:29.000Z,31.2
2019-02-11T11:27:29.000Z,31.2
2019-02-11T11:29:29.000Z,31.3
2019-02-11T11:31:14.000Z,31.3
2019-02-11T11:32:29.000Z,31.3
2019-02-11T11:33:29.000Z,31.4
2019-02-11T11:35:29.000Z,31.4
2019-02-11T11:36:29.000Z,31.4
2019-02-11T11:38:29.000Z,31.3
2019-02-11T11:39:29.000Z,31.4
2019-02-11T11:41:29.000Z,31.4
2019-02-11T11:42:29.000Z,31.5
2019-02-11T11:44:29.000Z,31.5
2019-02-11T11:45:29.000Z,31.5
2019-02-11T11:47:14.000Z,31.5
2019-02-11T11:48:29.000Z,31.5
2019-02-11T11:49:29.000Z,31.5
2019-02-11T11:51:29.000Z,31.5
2019-02-11T11:53:14.000Z,31.5
2019-02-11T11:54:29.000Z,31.6
2019-02-11T11:55:29.000Z,31.7
2019-02-11T11:56:29.000Z,31.9
2019-02-11T11:58:29.000Z,32.4
2019-02-11T12:00:29.000Z,32.7
2019-02-11T12:02:16.000Z,32.8
2019-02-11T12:03:29.000Z,33
2019-02-11T12:04:29.000Z,33.5
2019-02-11T12:05:29.000Z,33.7
2019-02-11T12:07:29.000Z,33.9
2019-02-11T12:08:29.000Z,33.9
2019-02-11T12:09:29.000Z,33.7
2019-02-11T12:10:29.000Z,33.5
2019-02-11T12:12:29.000Z,33.2
2019-02-11T12:14:29.000Z,32.7
2019-02-11T12:15:29.000Z,32.4
2019-02-11T12:16:29.000Z,32.3
2019-02-11T12:18:14.000Z,33
2019-02-11T12:19:29.000Z,34
2019-02-11T12:21:29.000Z,35.2
2019-02-11T12:22:29.000Z,35.6
2019-02-11T12:24:29.000Z,36.5
2019-02-11T12:25:29.000Z,36.4
2019-02-11T12:27:29.000Z,35.3
2019-02-11T12:28:29.000Z,34.8
2019-02-11T12:29:29.000Z,34.3
2019-02-11T12:31:29.000Z,33.6
2019-02-11T12:32:29.000Z,33.3
2019-02-11T12:34:29.000Z,32.8
2019-02-11T12:36:29.000Z,32.5
2019-02-11T12:37:29.000Z,32.4
2019-02-11T12:39:29.000Z,32.2
2019-02-11T12:40:29.000Z,32.1
2019-02-11T12:42:29.000Z,32
2019-02-11T12:44:29.000Z,31.8
2019-02-11T12:45:29.000Z,31.8
2019-02-11T12:47:14.000Z,31.7
2019-02-11T12:48:29.000Z,31.7
2019-02-11T12:50:29.000Z,31.6
2019-02-11T12:52:14.000Z,31.6
2019-02-11T12:53:29.000Z,31.6
2019-02-11T12:54:29.000Z,31.5
2019-02-11T12:56:14.000Z,31.5
2019-02-11T12:57:29.000Z,31.5
2019-02-11T12:59:29.000Z,31.5
2019-02-11T13:01:29.000Z,31.5
2019-02-11T13:03:29.000Z,31.5
2019-02-11T13:04:29.000Z,31.5
2019-02-11T13:06:29.000Z,31.5
2019-02-11T13:08:29.000Z,31.5
2019-02-11T13:10:29.000Z,31.5
2019-02-11T13:12:29.000Z,31.5
2019-02-11T13:14:29.000Z,31.5
2019-02-11T13:16:14.000Z,31.5
2019-02-11T13:17:14.000Z,31.5
2019-02-11T13:18:15.000Z,31.5
2019-02-11T13:20:29.000Z,31.5
2019-02-11T13:22:29.000Z,31.5
2019-02-11T13:24:14.000Z,31.6
2019-02-11T13:25:29.000Z,31.6
2019-02-11T13:27:29.000Z,31.6
2019-02-11T13:29:14.000Z,31.6
2019-02-11T13:30:29.000Z,31.6
2019-02-11T13:31:29.000Z,31.6
2019-02-11T13:33:29.000Z,31.6
2019-02-11T13:35:29.000Z,31.6
2019-02-11T13:36:29.000Z,31.7
2019-02-11T13:38:29.000Z,31.7
2019-02-11T13:40:14.000Z,31.7
2019-02-11T13:41:29.000Z,31.7
2019-02-11T13:42:29.000Z,31.7
2019-02-11T13:44:29.000Z,31.7
2019-02-11T13:46:29.000Z,31.7
2019-02-11T13:47:29.000Z,31.7
2019-02-11T13:49:14.000Z,31.7
2019-02-11T13:50:29.000Z,31.7
2019-02-11T13:51:29.000Z,31.8
2019-02-11T13:53:29.000Z,31.8
2019-02-11T13:55:29.000Z,31.8
2019-02-11T13:57:29.000Z,31.8
2019-02-11T13:59:29.000Z,31.8
2019-02-11T14:01:29.000Z,31.8
2019-02-11T14:02:29.000Z,31.8
2019-02-11T14:04:29.000Z,31.8
2019-02-11T14:06:29.000Z,31.8
2019-02-11T14:07:29.000Z,31.7
2019-02-11T14:08:29.000Z,31.7
2019-02-11T14:10:29.000Z,31.7
2019-02-11T14:11:29.000Z,31.7
2019-02-11T14:13:29.000Z,31.6
2019-02-11T14:15:14.000Z,31.6
2019-02-11T14:16:29.000Z,31.6
2019-02-11T14:18:15.000Z,31.6
2019-02-11T14:19:29.000Z,31.7
2019-02-11T14:20:29.000Z,31.6
2019-02-11T14:22:29.000Z,31.5
2019-02-11T14:23:29.000Z,31.5
2019-02-11T14:24:29.000Z,31.6
2019-02-11T14:26:29.000Z,31.9
2019-02-11T14:28:29.000Z,32.7
2019-02-11T14:29:29.000Z,33.1
2019-02-11T14:31:29.000Z,33.1
2019-02-11T14:33:29.000Z,33.1
2019-02-11T14:34:29.000Z,33
2019-02-11T14:36:29.000Z,33.4
2019-02-11T14:38:29.000Z,33.6
2019-02-11T14:40:29.000Z,33.4
2019-02-11T14:42:14.000Z,33
2019-02-11T14:43:29.000Z,32.8
2019-02-11T14:44:29.000Z,32.7
2019-02-11T14:46:29.000Z,32.4
2019-02-11T14:48:14.000Z,32.2
2019-02-11T14:49:29.000Z,32
2019-02-11T14:50:29.000Z,31.9
2019-02-11T14:52:29.000Z,31.7
2019-02-11T14:54:29.000Z,31.6
2019-02-11T14:56:29.000Z,31.6
2019-02-11T14:58:29.000Z,31.5
2019-02-11T15:00:29.000Z,31.4
2019-02-11T15:02:29.000Z,31.4
2019-02-11T15:03:29.000Z,31.4
2019-02-11T15:04:29.000Z,31.4
2019-02-11T15:06:29.000Z,31.5
2019-02-11T15:08:29.000Z,31.5
2019-02-11T15:10:29.000Z,31.5
2019-02-11T15:11:29.000Z,31.5
2019-02-11T15:12:29.000Z,31.5
2019-02-11T15:14:29.000Z,31.5
2019-02-11T15:16:29.000Z,31.5
2019-02-11T15:17:29.000Z,31.5
2019-02-11T15:18:29.000Z,31.5
2019-02-11T15:20:29.000Z,31.6
2019-02-11T15:22:29.000Z,31.6
2019-02-11T15:23:29.000Z,31.5
2019-02-11T15:24:29.000Z,31.5
2019-02-11T15:26:30.000Z,31.6
2019-02-11T15:28:30.000Z,31.6
2019-02-11T15:29:30.000Z,31.6
2019-02-11T15:30:30.000Z,31.5
2019-02-11T15:31:30.000Z,31.5
2019-02-11T15:32:30.000Z,31.5
2019-02-11T15:34:14.000Z,31.5
2019-02-11T15:35:15.000Z,31.5
2019-02-11T15:36:29.000Z,31.5
2019-02-11T15:37:30.000Z,31.5
2019-02-11T15:38:30.000Z,31.5
2019-02-11T15:40:30.000Z,31.4
2019-02-11T15:41:30.000Z,31.4
2019-02-11T15:43:30.000Z,31.4
2019-02-11T15:45:30.000Z,31.4
2019-02-11T15:47:30.000Z,31.3
2019-02-11T15:48:30.000Z,31.3
2019-02-11T15:49:30.000Z,31.3
2019-02-11T15:51:30.000Z,31.3
2019-02-11T15:52:30.000Z,31.3
2019-02-11T15:54:30.000Z,31.3
2019-02-11T15:56:30.000Z,31.3
2019-02-11T15:57:30.000Z,31.3
2019-02-11T15:58:30.000Z,31.2
2019-02-11T16:00:30.000Z,31.2
2019-02-11T16:01:30.000Z,31.2
2019-02-11T16:03:30.000Z,31.2
2019-02-11T16:04:30.000Z,31.2
2019-02-11T16:06:14.000Z,31.2
2019-02-11T16:07:30.000Z,31.2
2019-02-11T16:08:30.000Z,31.2
2019-02-11T16:10:30.000Z,31.2
2019-02-11T16:11:30.000Z,31.2
2019-02-11T16:13:30.000Z,31.2
2019-02-11T16:14:30.000Z,31.1
2019-02-11T16:15:30.000Z,31.1
2019-02-11T16:17:30.000Z,31.1
2019-02-11T16:18:30.000Z,31.1
2019-02-11T16:20:30.000Z,31.1
2019-02-11T16:21:30.000Z,31.1
2019-02-11T16:23:30.000Z,31.1
2019-02-11T16:25:30.000Z,31.1
2019-02-11T16:27:30.000Z,31.1
2019-02-11T16:28:30.000Z,31.1
2019-02-11T16:30:29.000Z,31
2019-02-11T16:32:29.000Z,31
2019-02-11T16:33:29.000Z,31
2019-02-11T16:35:29.000Z,30.9
2019-02-11T16:37:29.000Z,30.9
2019-02-11T16:39:14.000Z,30.9
2019-02-11T16:40:29.000Z,30.9
2019-02-11T16:41:29.000Z,30.9
2019-02-11T16:43:29.000Z,30.9
2019-02-11T16:45:29.000Z,30.8
2019-02-11T16:46:29.000Z,30.8
2019-02-11T16:48:29.000Z,30.8
2019-02-11T16:50:29.000Z,30.8
2019-02-11T16:52:29.000Z,30.8
2019-02-11T16:54:29.000Z,30.8
2019-02-11T16:56:29.000Z,30.7
2019-02-11T16:57:29.000Z,30.7
2019-02-11T16:58:29.000Z,30.7
2019-02-11T17:00:29.000Z,30.7
2019-02-11T17:01:29.000Z,30.7
2019-02-11T17:02:29.000Z,30.7
2019-02-11T17:04:29.000Z,30.7
2019-02-11T17:05:29.000Z,30.7
2019-02-11T17:07:29.000Z,30.6
2019-02-11T17:08:29.000Z,30.6
2019-02-11T17:09:29.000Z,30.6
2019-02-11T17:11:29.000Z,30.6
2019-02-11T17:12:29.000Z,30.6
2019-02-11T17:13:29.000Z,30.6
2019-02-11T17:15:29.000Z,30.6
2019-02-11T17:17:14.000Z,30.6
2019-02-11T17:18:29.000Z,30.6
2019-02-11T17:20:14.000Z,30.5
2019-02-11T17:21:29.000Z,30.5
2019-02-11T17:22:29.000Z,30.5
2019-02-11T17:24:29.000Z,30.5
2019-02-11T17:26:14.000Z,30.5
2019-02-11T17:27:29.000Z,30.5
2019-02-11T17:29:29.000Z,30.5
2019-02-11T17:30:29.000Z,30.5
2019-02-11T17:31:29.000Z,30.5
2019-02-11T17:32:29.000Z,30.5
2019-02-11T17:34:29.000Z,30.5
2019-02-11T17:36:14.000Z,30.5
2019-02-11T17:37:29.000Z,30.5
2019-02-11T17:39:29.000Z,30.4
2019-02-11T17:40:29.000Z,30.4
2019-02-11T17:42:29.000Z,30.4
2019-02-11T17:43:29.000Z,30.4
2019-02-11T17:44:29.000Z,30.4
2019-02-11T17:46:29.000Z,30.4
2019-02-11T17:48:14.000Z,30.4
2019-02-11T17:49:14.000Z,30.4
2019-02-11T17:50:29.000Z,30.4
2019-02-11T17:52:29.000Z,30.4
2019-02-11T17:54:29.000Z,30.3
2019-02-11T17:56:29.000Z,30.3
2019-02-11T17:57:29.000Z,30.3
2019-02-11T17:59:29.000Z,30.3
2019-02-11T18:01:29.000Z,30.3
2019-02-11T18:02:29.000Z,30.3
2019-02-11T18:04:29.000Z,30.3
2019-02-11T18:06:29.000Z,30.3
2019-02-11T18:08:14.000Z,30.3
2019-02-11T18:09:29.000Z,30.3
2019-02-11T18:11:29.000Z,30.3
2019-02-11T18:12:29.000Z,30.3
2019-02-11T18:13:29.000Z,30.3
2019-02-11T18:15:14.000Z,30.2
2019-02-11T18:16:29.000Z,30.2
2019-02-11T18:17:29.000Z,30.2
2019-02-11T18:19:29.000Z,30.2
2019-02-11T18:21:29.000Z,30.2
2019-02-11T18:23:29.000Z,30.2
2019-02-11T18:25:29.000Z,30.2
2019-02-11T18:26:29.000Z,30.2
2019-02-11T18:27:29.000Z,30.2
2019-02-11T18:29:29.000Z,30.2
2019-02-11T18:31:29.000Z,30.2
2019-02-11T18:32:29.000Z,30.2
2019-02-11T18:33:29.000Z,30.2
2019-02-11T18:35:29.000Z,30.1
2019-02-11T18:37:29.000Z,30.1
2019-02-11T18:39:29.000Z,30.1
2019-02-11T18:40:29.000Z,30.1
2019-02-11T18:41:29.000Z,30.1
2019-02-11T18:42:29.000Z,30.1
2019-02-11T18:44:29.000Z,30.1
2019-02-11T18:45:29.000Z,30.1
2019-02-11T18:47:29.000Z,30.1
2019-02-11T18:49:29.000Z,30.1
2019-02-11T18:51:29.000Z,30.1
2019-02-11T18:52:29.000Z,30.1
2019-02-11T18:54:29.000Z,30.1
2019-02-11T18:56:14.000Z,30.1
2019-02-11T18:57:29.000Z,30
2019-02-11T18:58:29.000Z,30
2019-02-11T19:00:29.000Z,30
2019-02-11T19:01:29.000Z,30
2019-02-11T19:03:29.000Z,30
2019-02-11T19:05:29.000Z,30
2019-02-11T19:06:29.000Z,30
2019-02-11T19:08:14.000Z,30
2019-02-11T19:09:29.000Z,30
2019-02-11T19:11:29.000Z,30
2019-02-11T19:12:29.000Z,30
2019-02-11T19:14:29.000Z,30
2019-02-11T19:15:29.000Z,30
2019-02-11T19:17:29.000Z,30
2019-02-11T19:18:29.000Z,29.9
2019-02-11T19:20:29.000Z,29.9
2019-02-11T19:21:29.000Z,29.9
2019-02-11T19:22:29.000Z,29.9
2019-02-11T19:24:29.000Z,29.9
2019-02-11T19:26:29.000Z,29.9
2019-02-11T19:27:29.000Z,29.9
2019-02-11T19:29:29.000Z,29.9
2019-02-11T19:30:29.000Z,29.9
2019-02-11T19:32:29.000Z,29.9
2019-02-11T19:34:29.000Z,29.9
2019-02-11T19:35:29.000Z,29.9
2019-02-11T19:37:29.000Z,29.9
2019-02-11T19:38:29.000Z,29.9
2019-02-11T19:40:14.000Z,29.9
2019-02-11T19:41:14.000Z,29.9
2019-02-11T19:42:29.000Z,29.9
2019-02-11T19:44:29.000Z,29.9
2019-02-11T19:46:29.000Z,29.9
2019-02-11T19:47:29.000Z,29.9
2019-02-11T19:48:29.000Z,29.8
2019-02-11T19:50:29.000Z,29.8
2019-02-11T19:52:14.000Z,29.8
2019-02-11T19:53:29.000Z,29.8
2019-02-11T19:55:29.000Z,29.8
2019-02-11T19:56:29.000Z,29.8
2019-02-11T19:58:29.000Z,29.8
2019-02-11T20:00:14.000Z,29.8
2019-02-11T20:01:29.000Z,29.8
2019-02-11T20:03:29.000Z,29.8
2019-02-11T20:04:29.000Z,29.8
2019-02-11T20:06:29.000Z,29.8
2019-02-11T20:07:29.000Z,29.8
2019-02-11T20:08:29.000Z,29.8
2019-02-11T20:10:29.000Z,29.7
2019-02-11T20:11:29.000Z,29.7
2019-02-11T20:13:29.000Z,29.7
2019-02-11T20:14:29.000Z,29.7
2019-02-11T20:16:29.000Z,29.7
2019-02-11T20:18:29.000Z,29.7
2019-02-11T20:19:29.000Z,29.7
2019-02-11T20:20:29.000Z,29.7
2019-02-11T20:22:29.000Z,29.7
2019-02-11T20:24:29.000Z,29.7
2019-02-11T20:25:29.000Z,29.7
2019-02-11T20:26:29.000Z,29.7
2019-02-11T20:28:29.000Z,29.7
2019-02-11T20:30:14.000Z,29.7
2019-02-11T20:31:29.000Z,29.7
2019-02-11T20:32:29.000Z,29.7
2019-02-11T20:33:29.000Z,29.7
2019-02-11T20:35:29.000Z,29.7
2019-02-11T20:37:29.000Z,29.7